sensor_id;sensor_type;location;lat;lon;timestamp;temperature;humidity
45735;DHT22;31446;49.632;8.328;2023-07-30T00:11:00;19.30;99.90
45735;DHT22;31446;49.632;8.328;2023-07-30T00:26:06;19.30;99.90
45735;DHT22;31446;49.632;8.328;2023-07-30T00:41:13;19.30;99.90
45735;DHT22;31446;49.632;8.328;2023-07-30T00:56:19;19.20;99.90
45735;DHT22;31446;49.632;8.328;2023-07-30T01:11:26;19.20;99.90
45735;DHT22;31446;49.632;8.328;2023-07-30T01:26:37;19.50;99.90
45735;DHT22;31446;49.632;8.328;2023-07-30T01:41:45;19.20;99.90
45735;DHT22;31446;49.632;8.328;2023-07-30T01:56:51;19.20;99.90
45735;DHT22;31446;49.632;8.328;2023-07-30T02:11:58;19.10;99.90
45735;DHT22;31446;49.632;8.328;2023-07-30T02:27:05;19.20;99.90
45735;DHT22;31446;49.632;8.328;2023-07-30T02:42:11;19.10;99.90
45735;DHT22;31446;49.632;8.328;2023-07-30T02:57:22;19.00;99.90
45735;DHT22;31446;49.632;8.328;2023-07-30T03:12:29;19.00;99.90
45735;DHT22;31446;49.632;8.328;2023-07-30T03:27:35;18.90;99.90
45735;DHT22;31446;49.632;8.328;2023-07-30T03:42:42;18.70;99.90
45735;DHT22;31446;49.632;8.328;2023-07-30T03:57:48;18.60;99.90
45735;DHT22;31446;49.632;8.328;2023-07-30T04:12:54;18.70;99.90
45735;DHT22;31446;49.632;8.328;2023-07-30T04:28:01;18.70;99.90
45735;DHT22;31446;49.632;8.328;2023-07-30T04:43:07;18.80;99.90
45735;DHT22;31446;49.632;8.328;2023-07-30T04:58:13;18.80;99.90
45735;DHT22;31446;49.632;8.328;2023-07-30T05:13:20;18.90;99.90
45735;DHT22;31446;49.632;8.328;2023-07-30T05:28:26;19.10;99.90
45735;DHT22;31446;49.632;8.328;2023-07-30T05:43:33;19.60;99.90
45735;DHT22;31446;49.632;8.328;2023-07-30T05:58:39;20.50;99.90
45735;DHT22;31446;49.632;8.328;2023-07-30T06:13:46;20.90;99.90
45735;DHT22;31446;49.632;8.328;2023-07-30T06:28:52;21.40;99.90
45735;DHT22;31446;49.632;8.328;2023-07-30T06:43:58;21.40;99.90
45735;DHT22;31446;49.632;8.328;2023-07-30T06:59:06;21.80;99.90
45735;DHT22;31446;49.632;8.328;2023-07-30T07:14:13;22.50;99.90
45735;DHT22;31446;49.632;8.328;2023-07-30T07:29:19;22.60;99.90
45735;DHT22;31446;49.632;8.328;2023-07-30T07:44:26;23.40;99.90
45735;DHT22;31446;49.632;8.328;2023-07-30T07:59:32;23.30;99.90
45735;DHT22;31446;49.632;8.328;2023-07-30T08:14:39;23.90;99.90
45735;DHT22;31446;49.632;8.328;2023-07-30T08:29:45;24.00;99.90
45735;DHT22;31446;49.632;8.328;2023-07-30T08:44:52;23.80;99.90
45735;DHT22;31446;49.632;8.328;2023-07-30T09:00:02;24.20;99.90
45735;DHT22;31446;49.632;8.328;2023-07-30T09:15:12;25.00;99.90
45735;DHT22;31446;49.632;8.328;2023-07-30T09:30:22;24.90;99.90
45735;DHT22;31446;49.632;8.328;2023-07-30T09:45:34;24.20;99.90
45735;DHT22;31446;49.632;8.328;2023-07-30T10:00:42;23.40;99.90
45735;DHT22;31446;49.632;8.328;2023-07-30T10:15:50;24.00;99.90
45735;DHT22;31446;49.632;8.328;2023-07-30T10:31:01;24.30;99.90
45735;DHT22;31446;49.632;8.328;2023-07-30T10:46:09;24.00;99.90
45735;DHT22;31446;49.632;8.328;2023-07-30T11:01:17;23.00;99.90
45735;DHT22;31446;49.632;8.328;2023-07-30T11:16:23;23.50;99.90
45735;DHT22;31446;49.632;8.328;2023-07-30T11:31:31;23.00;99.90
45735;DHT22;31446;49.632;8.328;2023-07-30T11:46:37;22.80;99.90
45735;DHT22;31446;49.632;8.328;2023-07-30T12:01:44;22.30;99.90
45735;DHT22;31446;49.632;8.328;2023-07-30T12:16:50;23.70;99.90
45735;DHT22;31446;49.632;8.328;2023-07-30T12:31:57;23.30;99.90
45735;DHT22;31446;49.632;8.328;2023-07-30T12:47:04;23.30;99.90
45735;DHT22;31446;49.632;8.328;2023-07-30T13:02:11;23.60;99.90
45735;DHT22;31446;49.632;8.328;2023-07-30T13:17:18;23.60;99.90
45735;DHT22;31446;49.632;8.328;2023-07-30T13:32:25;23.90;99.90
45735;DHT22;31446;49.632;8.328;2023-07-30T13:47:31;24.30;99.90
45735;DHT22;31446;49.632;8.328;2023-07-30T14:02:40;24.30;99.90
45735;DHT22;31446;49.632;8.328;2023-07-30T14:17:49;24.20;99.90
45735;DHT22;31446;49.632;8.328;2023-07-30T14:32:57;24.10;99.90
45735;DHT22;31446;49.632;8.328;2023-07-30T14:48:04;25.00;99.90
45735;DHT22;31446;49.632;8.328;2023-07-30T15:03:11;24.30;99.90
45735;DHT22;31446;49.632;8.328;2023-07-30T15:18:19;24.10;99.70
45735;DHT22;31446;49.632;8.328;2023-07-30T15:33:25;24.10;98.40
45735;DHT22;31446;49.632;8.328;2023-07-30T15:48:31;23.70;98.50
45735;DHT22;31446;49.632;8.328;2023-07-30T16:03:39;23.50;98.40
45735;DHT22;31446;49.632;8.328;2023-07-30T16:18:46;23.20;99.20
45735;DHT22;31446;49.632;8.328;2023-07-30T16:33:53;23.50;98.80
45735;DHT22;31446;49.632;8.328;2023-07-30T16:48:59;23.40;98.60
45735;DHT22;31446;49.632;8.328;2023-07-30T17:04:08;22.80;99.90
45735;DHT22;31446;49.632;8.328;2023-07-30T17:19:14;23.10;99.90
45735;DHT22;31446;49.632;8.328;2023-07-30T17:34:20;23.10;99.90
45735;DHT22;31446;49.632;8.328;2023-07-30T17:49:27;22.80;99.90
45735;DHT22;31446;49.632;8.328;2023-07-30T18:04:33;23.00;99.90
45735;DHT22;31446;49.632;8.328;2023-07-30T18:19:40;22.30;99.90
45735;DHT22;31446;49.632;8.328;2023-07-30T18:34:47;21.70;99.90
45735;DHT22;31446;49.632;8.328;2023-07-30T18:49:56;21.30;99.90
45735;DHT22;31446;49.632;8.328;2023-07-30T19:05:03;21.00;99.90
45735;DHT22;31446;49.632;8.328;2023-07-30T19:20:10;20.70;99.90
45735;DHT22;31446;49.632;8.328;2023-07-30T19:35:17;20.00;99.90
45735;DHT22;31446;49.632;8.328;2023-07-30T19:50:23;19.60;99.90
45735;DHT22;31446;49.632;8.328;2023-07-30T20:05:32;19.40;99.90
45735;DHT22;31446;49.632;8.328;2023-07-30T20:20:39;19.30;99.90
45735;DHT22;31446;49.632;8.328;2023-07-30T20:35:45;19.40;99.90
45735;DHT22;31446;49.632;8.328;2023-07-30T20:50:55;19.50;99.90
45735;DHT22;31446;49.632;8.328;2023-07-30T21:06:01;19.70;99.90
45735;DHT22;31446;49.632;8.328;2023-07-30T21:21:08;19.60;99.90
45735;DHT22;31446;49.632;8.328;2023-07-30T21:36:14;19.70;99.90
45735;DHT22;31446;49.632;8.328;2023-07-30T21:51:20;19.70;99.90
45735;DHT22;31446;49.632;8.328;2023-07-30T22:06:26;19.50;99.90
45735;DHT22;31446;49.632;8.328;2023-07-30T22:21:32;19.20;99.90
45735;DHT22;31446;49.632;8.328;2023-07-30T22:36:38;19.10;99.90
45735;DHT22;31446;49.632;8.328;2023-07-30T22:51:45;19.20;99.90
45735;DHT22;31446;49.632;8.328;2023-07-30T23:06:51;19.40;99.90
45735;DHT22;31446;49.632;8.328;2023-07-30T23:21:57;19.40;99.90
45735;DHT22;31446;49.632;8.328;2023-07-30T23:37:03;19.30;99.90
45735;DHT22;31446;49.632;8.328;2023-07-30T23:52:10;19.30;99.90
